Time;durP1;ratioP1;P1;durP2;ratioP2;P2;SDS_P1;SDS_P2;PMS_P1;PMS_P2;Temp;Humidity;BMP_temperature;BMP_pressure;BME280_temperature;BME280_humidity;BME280_pressure;Samples;Min_cycle;Max_cycle;Signal;HPM_P1;HPM_P2
2021/10/07 00:01:30;;;;;;;1999.90;999.90;;;;;;;10.03;74.92;101942.75;15667041;28;20593;-56
2021/10/07 00:09:06;;;;;;;1999.90;999.90;;;;;;;10.10;74.47;101948.75;15679667;28;20068;-58
2021/10/07 00:16:38;;;;;;;1999.90;999.90;;;;;;;10.10;73.63;101961.88;15677828;28;20123;-57
2021/10/07 00:24:12;;;;;;;1999.90;999.90;;;;;;;10.06;74.35;101969.19;15667340;28;20056;-58
2021/10/07 00:31:47;;;;;;;1999.90;999.90;;;;;;;9.91;74.06;101966.63;15655737;28;20049;-57
2021/10/07 00:39:20;;;;;;;1999.90;999.90;;;;;;;9.89;74.08;101950.16;15689850;28;20091;-57
2021/10/07 00:46:54;;;;;;;;;;;;;;;9.80;74.44;101965.91;15690249;28;20482;-60
2021/10/07 00:54:28;;;;;;;1999.90;999.90;;;;;;;9.65;74.45;101969.69;15688289;28;19929;-60
2021/10/07 01:02:04;;;;;;;1999.90;999.90;;;;;;;9.77;73.43;101977.63;15672197;28;20056;-60
2021/10/07 01:09:39;;;;;;;1999.90;999.90;;;;;;;9.74;73.94;101983.81;15653613;22;20088;-62
2021/10/07 01:17:13;;;;;;;1999.90;999.90;;;;;;;9.55;74.43;101992.94;15620779;28;20033;-61
2021/10/07 01:24:48;;;;;;;1999.90;999.90;;;;;;;9.50;74.25;101993.00;15669343;28;20048;-61
2021/10/07 01:32:20;;;;;;;1999.90;999.90;;;;;;;9.49;74.23;102013.63;15680629;28;20059;-59
2021/10/07 01:39:54;;;;;;;1999.90;999.90;;;;;;;9.49;74.03;102013.63;15680534;28;20045;-62
2021/10/07 01:47:26;;;;;;;;;;;;;;;9.49;73.38;102004.44;15617045;28;20410;-60
2021/10/07 01:55:00;;;;;;;1999.90;999.90;;;;;;;9.32;73.89;102012.41;15616138;28;19921;-60
2021/10/07 02:02:32;;;;;;;1999.90;999.90;;;;;;;9.01;75.10;102009.91;15616852;28;20061;-62
2021/10/07 02:10:09;;;;;;;1999.90;999.90;;;;;;;8.99;75.02;102019.66;15617652;28;20522;-56
2021/10/07 02:17:41;;;;;;;1999.90;999.90;;;;;;;8.90;74.85;102031.41;15617114;28;20487;-60
2021/10/07 02:25:15;;;;;;;1999.90;999.90;;;;;;;9.09;73.62;102036.28;15615595;28;20063;-57
2021/10/07 02:32:50;;;;;;;1999.90;999.90;;;;;;;9.04;73.64;102048.28;15615142;28;20064;-59
2021/10/07 02:40:24;;;;;;;1999.90;999.90;;;;;;;8.85;74.53;102052.88;15615104;28;20049;-62
2021/10/07 02:47:56;;;;;;;1999.90;999.90;;;;;;;8.74;74.33;102063.25;15612521;28;20079;-62
2021/10/07 02:55:30;;;;;;;1999.90;999.90;;;;;;;8.72;74.54;102067.44;15614006;28;20045;-63
2021/10/07 03:03:02;;;;;;;;;;;;;;;8.75;73.94;102070.47;15613081;28;20052;-62
2021/10/07 03:10:36;;;;;;;1999.90;999.90;;;;;;;8.64;74.18;102078.06;15612636;28;19942;-62
2021/10/07 03:18:08;;;;;;;1999.90;999.90;;;;;;;8.57;74.62;102076.72;15611024;28;20045;-60
2021/10/07 03:25:42;;;;;;;1999.90;999.90;;;;;;;8.44;74.62;102092.09;15612774;28;20682;-61
2021/10/07 03:33:14;;;;;;;1999.90;999.90;;;;;;;8.58;73.43;102098.69;15611101;28;20045;-62
2021/10/07 03:40:48;;;;;;;1999.90;999.90;;;;;;;8.54;73.89;102125.41;15611802;28;20071;-61
2021/10/07 03:48:21;;;;;;;1999.90;999.90;;;;;;;8.44;74.08;102135.75;15611398;28;20037;-63
2021/10/07 03:55:55;;;;;;;1999.90;999.90;;;;;;;8.38;73.74;102138.56;15609767;28;20037;-62
2021/10/07 04:03:27;;;;;;;;;;;;;;;8.35;73.91;102139.16;15612338;28;20045;-62
2021/10/07 04:11:02;;;;;;;1999.90;999.90;;;;;;;8.17;74.36;102148.06;15610544;28;19931;-62
2021/10/07 04:18:34;;;;;;;1999.90;999.90;;;;;;;8.16;74.07;102156.69;15608945;28;20049;-61
2021/10/07 04:26:08;;;;;;;1999.90;999.90;;;;;;;8.13;74.08;102163.66;15671688;28;20071;-62
2021/10/07 04:33:40;;;;;;;1999.90;999.90;;;;;;;8.11;73.50;102172.25;15672000;28;20110;-63
2021/10/07 04:41:14;;;;;;;1999.90;999.90;;;;;;;7.99;74.26;102180.06;15673341;28;20144;-62
2021/10/07 04:48:47;;;;;;;1999.90;999.90;;;;;;;7.94;74.15;102184.81;15670753;28;20037;-60
2021/10/07 04:56:20;;;;;;;1999.90;999.90;;;;;;;7.88;74.73;102195.09;15671080;28;20076;-62
2021/10/07 05:04:06;;;;;;;1999.90;999.90;;;;;;;7.93;73.89;102199.84;15671616;28;20065;-63
2021/10/07 05:11:58;;;;;;;1999.90;999.90;;;;;;;7.81;73.76;102203.72;15654432;28;20413;-60
2021/10/07 05:19:31;;;;;;;1999.90;999.90;;;;;;;7.79;74.37;102214.28;15619064;28;20134;-62
2021/10/07 05:27:05;;;;;;;1999.90;999.90;;;;;;;7.81;74.35;102222.31;15620624;28;20041;-60
2021/10/07 05:34:37;;;;;;;1999.90;999.90;;;;;;;7.93;73.57;102227.63;15619068;28;20041;-61
2021/10/07 05:42:11;;;;;;;1999.90;999.90;;;;;;;7.99;74.48;102235.66;15619466;28;20136;-61
2021/10/07 05:49:44;;;;;;;1999.90;999.90;;;;;;;8.11;74.38;102243.72;15618992;28;20559;-57
2021/10/07 05:57:19;;;;;;;1999.90;999.90;;;;;;;8.04;75.15;102246.81;15619063;28;20041;-62
2021/10/07 06:04:51;;;;;;;1999.90;999.90;;;;;;;8.30;74.98;102252.31;15615470;28;20084;-61
2021/10/07 06:12:35;;;;;;;1999.90;999.90;;;;;;;8.51;74.77;102269.84;15614463;28;20530;-62
2021/10/07 06:20:17;;;;;;;;;;;;;;;8.81;75.03;102280.06;15627495;28;20041;-62
2021/10/07 06:27:52;;;;;;;1999.90;999.90;;;;;;;8.88;75.26;102284.22;15633408;28;20000;-60
2021/10/07 06:35:24;;;;;;;1999.90;999.90;;;;;;;9.23;75.59;102282.41;15615349;28;20046;-60
2021/10/07 06:42:58;;;;;;;1999.90;999.90;;;;;;;10.27;74.06;102302.63;15615079;28;20068;-59
2021/10/07 06:50:30;;;;;;;1999.90;999.90;;;;;;;11.98;69.41;102313.94;15611893;28;20247;-60
2021/10/07 06:58:06;;;;;;;1999.90;999.90;;;;;;;13.20;65.72;102325.75;15604437;28;20063;-60
2021/10/07 07:05:39;;;;;;;1999.90;999.90;;;;;;;14.02;63.89;102329.53;15631155;23;20076;-61
2021/10/07 07:13:17;;;;;;;1999.90;999.90;;;;;;;14.64;62.77;102341.72;15660520;28;20099;-59
2021/10/07 07:20:50;;;;;;;1999.90;999.90;;;;;;;15.37;61.21;102347.03;15683559;28;20041;-63
2021/10/07 07:28:27;;;;;;;1999.90;999.90;;;;;;;15.96;61.00;102355.94;15662572;28;20041;-59
2021/10/07 07:36:00;;;;;;;1999.90;999.90;;;;;;;16.51;59.46;102361.72;15671042;28;20124;-55
2021/10/07 07:43:34;;;;;;;1999.90;999.90;;;;;;;16.34;59.68;102361.72;15651797;28;20652;-56
2021/10/07 07:51:06;;;;;;;1999.90;999.90;;;;;;;16.99;58.94;102369.09;15659645;28;20049;-58
2021/10/07 07:58:41;;;;;;;1999.90;999.90;;;;;;;17.55;59.62;102386.75;15658900;28;20037;-59
2021/10/07 08:06:14;;;;;;;1999.90;999.90;;;;;;;17.52;59.71;102387.44;15634241;28;20051;-58
2021/10/07 08:13:48;;;;;;;1999.90;999.90;;;;;;;18.28;54.77;102392.09;15669649;28;20049;-59
2021/10/07 08:21:21;;;;;;;1999.90;999.90;;;;;;;18.98;54.97;102393.94;15657929;28;20049;-58
2021/10/07 08:28:58;;;;;;;1999.90;999.90;;;;;;;18.91;54.73;102402.16;15650479;28;20033;-58
2021/10/07 08:36:32;;;;;;;1999.90;999.90;;;;;;;20.00;53.54;102399.75;15675323;28;20048;-58
2021/10/07 08:44:06;;;;;;;1999.90;999.90;;;;;;;20.36;52.99;102411.00;15661526;28;20072;-60
2021/10/07 08:51:39;;;;;;;1999.90;999.90;;;;;;;20.66;49.87;102405.00;15687835;28;20041;-57
2021/10/07 08:59:14;;;;;;;1999.90;999.90;;;;;;;20.72;50.80;102420.56;15669919;28;20448;-58
2021/10/07 09:06:48;;;;;;;1999.90;999.90;;;;;;;21.04;48.55;102425.09;15688577;28;20045;-55
2021/10/07 09:14:28;;;;;;;1999.90;999.90;;;;;;;22.19;47.66;102438.19;15652450;28;20047;-58
2021/10/07 09:22:14;;;;;;;1999.90;999.90;;;;;;;22.55;47.38;102433.28;15686509;28;20045;-58
2021/10/07 09:29:52;;;;;;;1999.90;999.90;;;;;;;22.75;47.45;102446.31;15669108;28;20037;-59
2021/10/07 09:37:31;;;;;;;1999.90;999.90;;;;;;;23.30;44.31;102438.44;15676709;28;20402;-56
2021/10/07 09:45:10;;;;;;;1999.90;999.90;;;;;;;23.39;46.29;102441.06;15683714;28;20045;-59
2021/10/07 09:52:50;;;;;;;1999.90;999.90;;;;;;;22.83;43.81;102446.47;15679799;28;20144;-59
2021/10/07 10:00:29;;;;;;;1999.90;999.90;;;;;;;24.08;41.86;102446.69;15684394;28;20509;-56
2021/10/07 10:08:05;;;;;;;1999.90;999.90;;;;;;;23.82;41.42;102448.31;15647057;28;20044;-58
2021/10/07 10:15:42;;;;;;;1999.90;999.90;;;;;;;23.10;42.02;102453.13;15665407;28;20136;-58
2021/10/07 10:23:21;;;;;;;1999.90;999.90;;;;;;;24.26;41.40;102449.78;15682784;28;20544;-60
2021/10/07 10:31:02;;;;;;;1999.90;999.90;;;;;;;24.91;38.87;102452.31;15664020;28;20438;-59
2021/10/07 10:38:41;;;;;;;1999.90;999.90;;;;;;;25.15;39.70;102463.22;15681130;28;20041;-59
2021/10/07 10:46:17;;;;;;;1999.90;999.90;;;;;;;26.55;37.59;102476.59;15680164;28;20045;-62
2021/10/07 10:53:51;;;;;;;1999.90;999.90;;;;;;;26.96;35.13;102477.19;15679939;28;20095;-59
2021/10/07 11:01:25;;;;;;;1999.90;999.90;;;;;;;27.25;34.87;102481.78;15679294;28;20053;-59
2021/10/07 11:08:57;;;;;;;1999.90;999.90;;;;;;;27.52;34.12;102478.56;15660502;28;20467;-58
2021/10/07 11:16:33;;;;;;;1999.90;999.90;;;;;;;27.57;33.59;102476.09;15679136;28;20068;-58
2021/10/07 11:24:15;;;;;;;1999.90;999.90;;;;;;;28.79;32.63;102468.13;15660587;28;20049;-60
2021/10/07 11:31:49;;;;;;;1999.90;999.90;;;;;;;28.49;32.69;102474.41;15644639;28;20052;-59
2021/10/07 11:39:22;;;;;;;1999.90;999.90;;;;;;;27.78;32.85;102469.59;15688866;28;20108;-60
2021/10/07 11:46:57;;;;;;;1999.90;999.90;;;;;;;29.81;30.61;102470.78;15688046;28;20524;-56
2021/10/07 11:54:32;;;;;;;1999.90;999.90;;;;;;;30.12;30.33;102475.44;15677515;28;20481;-60
2021/10/07 12:02:13;;;;;;;1999.90;999.90;;;;;;;28.56;30.50;102476.44;15642557;28;20469;-61
2021/10/07 12:09:48;;;;;;;1999.90;999.90;;;;;;;27.54;32.21;102464.63;15675810;28;20041;-61
2021/10/07 12:17:27;;;;;;;1999.90;999.90;;;;;;;29.57;30.16;102461.09;15675407;28;20370;-61
2021/10/07 12:25:02;;;;;;;1999.90;999.90;;;;;;;31.91;27.71;102470.94;15658153;28;20048;-61
2021/10/07 12:32:36;;;;;;;1999.90;999.90;;;;;;;33.30;26.14;102454.41;15658608;28;20068;-62
2021/10/07 12:40:09;;;;;;;1999.90;999.90;;;;;;;33.93;25.07;102461.97;15676335;28;20541;-62
2021/10/07 12:47:43;;;;;;;1999.90;999.90;;;;;;;35.82;22.89;102461.97;15676592;28;20071;-62
2021/10/07 12:55:17;;;;;;;1999.90;999.90;;;;;;;33.93;23.98;102469.84;15675113;28;20091;-62
2021/10/07 13:02:51;;;;;;;1999.90;999.90;;;;;;;35.13;23.37;102464.72;15640895;28;20434;-61
2021/10/07 13:10:24;;;;;;;1999.90;999.90;;;;;;;36.68;21.36;102466.34;15656880;28;20049;-61
2021/10/07 13:17:58;;;;;;;1999.90;999.90;;;;;;;32.43;25.67;102459.66;15674621;28;20041;-62
2021/10/07 13:25:32;;;;;;;1999.90;999.90;;;;;;;25.54;35.97;102451.34;15656342;28;20485;-61
2021/10/07 13:33:06;;;;;;;1999.90;999.90;;;;;;;24.83;37.86;102447.72;15650079;28;20632;-63
2021/10/07 13:40:39;;;;;;;1999.90;999.90;;;;;;;23.28;42.31;102442.91;15650908;28;20071;-63
2021/10/07 13:48:13;;;;;;;;;;;;;;;23.18;41.18;102446.38;15679167;28;20037;-64
2021/10/07 13:55:45;;;;;;;1999.90;999.90;;;;;;;23.00;41.68;102434.63;15665378;28;19921;-61
2021/10/07 14:03:19;;;;;;;1999.90;999.90;;;;;;;22.37;43.96;102443.47;15667001;28;20072;-62
2021/10/07 14:10:52;;;;;;;1999.90;999.90;;;;;;;22.77;43.85;102435.38;15678905;28;20065;-62
2021/10/07 14:18:26;;;;;;;1999.90;999.90;;;;;;;22.51;44.45;102448.63;15682853;28;20053;-63
2021/10/07 14:26:00;;;;;;;1999.90;999.90;;;;;;;21.75;46.81;102445.22;15640025;28;20581;-63
2021/10/07 14:33:34;;;;;;;1999.90;999.90;;;;;;;22.13;44.86;102442.53;15665360;28;20475;-62
2021/10/07 14:41:07;;;;;;;1999.90;999.90;;;;;;;21.87;45.92;102447.97;15672730;28;20052;-62
2021/10/07 14:48:41;;;;;;;1999.90;999.90;;;;;;;21.57;47.04;102444.78;15660737;28;20037;-62
2021/10/07 14:56:14;;;;;;;1999.90;999.90;;;;;;;21.15;48.96;102439.59;15680553;28;20056;-61
2021/10/07 15:03:48;;;;;;;1999.90;999.90;;;;;;;21.31;49.44;102442.50;15678800;28;20053;-61
2021/10/07 15:11:23;;;;;;;1999.90;999.90;;;;;;;20.98;49.94;102434.28;15676816;28;20037;-62
2021/10/07 15:18:58;;;;;;;1999.90;999.90;;;;;;;20.95;49.71;102447.19;15681004;28;20107;-61
2021/10/07 15:26:37;;;;;;;1999.90;999.90;;;;;;;20.45;50.87;102436.41;15663757;28;20044;-61
2021/10/07 15:34:25;;;;;;;1999.90;999.90;;;;;;;20.45;52.39;102437.22;15677874;28;20127;-58
2021/10/07 15:42:03;;;;;;;1999.90;999.90;;;;;;;20.21;53.40;102447.75;15661635;28;20044;-62
2021/10/07 15:49:48;;;;;;;1999.90;999.90;;;;;;;19.94;54.21;102455.84;15677449;28;20549;-61
2021/10/07 15:57:26;;;;;;;1999.90;999.90;;;;;;;19.61;56.42;102455.97;15664003;28;20522;-59
2021/10/07 16:05:01;;;;;;;1999.90;999.90;;;;;;;19.42;55.91;102462.16;15679634;28;20055;-60
2021/10/07 16:12:35;;;;;;;1999.90;999.90;;;;;;;19.07;56.70;102460.88;15678779;28;20051;-58
2021/10/07 16:20:10;;;;;;;1999.90;999.90;;;;;;;18.78;58.30;102474.00;15656408;28;20056;-59
2021/10/07 16:27:43;;;;;;;1999.90;999.90;;;;;;;18.51;58.71;102491.50;15662017;28;20493;-60
2021/10/07 16:35:17;;;;;;;1999.90;999.90;;;;;;;18.23;59.49;102491.19;15678604;28;20053;-60
2021/10/07 16:42:50;;;;;;;1999.90;999.90;;;;;;;17.88;60.94;102506.34;15662327;28;20064;-61
2021/10/07 16:50:24;;;;;;;1999.90;999.90;;;;;;;17.60;61.62;102499.47;15679333;28;20128;-60
2021/10/07 16:57:56;;;;;;;1999.90;999.90;;;;;;;17.27;62.99;102508.53;15682263;28;20041;-61
2021/10/07 17:05:30;;;;;;;1999.90;999.90;;;;;;;17.02;63.61;102509.44;15655105;28;20095;-61
2021/10/07 17:13:02;;;;;;;1999.90;999.90;;;;;;;16.83;63.99;102532.31;15690945;28;20083;-60
2021/10/07 17:20:36;;;;;;;1999.90;999.90;;;;;;;16.68;64.90;102524.38;15689922;28;20052;-59
2021/10/07 17:28:09;;;;;;;1999.90;999.90;;;;;;;16.56;65.12;102530.63;15671043;28;20043;-58
2021/10/07 17:35:43;;;;;;;1999.90;999.90;;;;;;;16.48;65.97;102542.72;15686443;28;20128;-58
2021/10/07 17:43:18;;;;;;;1999.90;999.90;;;;;;;16.20;66.93;102547.78;15686821;28;20064;-59
2021/10/07 17:50:52;;;;;;;1999.90;999.90;;;;;;;16.20;66.60;102544.16;15686050;28;20501;-59
2021/10/07 17:58:25;;;;;;;1999.90;999.90;;;;;;;16.02;67.19;102560.97;15667444;28;20103;-59
2021/10/07 18:05:59;;;;;;;1999.90;999.90;;;;;;;15.95;67.70;102563.47;15685082;28;20517;-58
2021/10/07 18:13:33;;;;;;;1999.90;999.90;;;;;;;15.80;67.88;102552.63;15668298;28;20041;-61
2021/10/07 18:21:09;;;;;;;1999.90;999.90;;;;;;;15.72;67.99;102565.50;15687650;28;20124;-59
2021/10/07 18:28:41;;;;;;;1999.90;999.90;;;;;;;15.58;68.61;102562.75;15649864;28;20049;-59
2021/10/07 18:36:15;;;;;;;1999.90;999.90;;;;;;;15.55;68.43;102569.03;15684625;28;20129;-59
2021/10/07 18:43:48;;;;;;;1999.90;999.90;;;;;;;15.45;68.79;102566.47;15666812;28;20059;-58
2021/10/07 18:51:22;;;;;;;;;;;;;;;15.36;69.09;102570.41;15685001;28;20109;-60
2021/10/07 18:58:55;;;;;;;1999.90;999.90;;;;;;;15.11;70.19;102575.53;15681437;28;19993;-58
2021/10/07 19:06:31;;;;;;;1999.90;999.90;;;;;;;15.12;70.14;102582.81;15683012;28;20401;-60
2021/10/07 19:14:03;;;;;;;1999.90;999.90;;;;;;;15.00;70.48;102586.16;15682489;28;20072;-59
2021/10/07 19:21:38;;;;;;;1999.90;999.90;;;;;;;15.09;70.11;102569.34;15682075;28;20044;-60
2021/10/07 19:29:10;;;;;;;1999.90;999.90;;;;;;;15.16;71.24;102583.00;15663878;28;20094;-62
2021/10/07 19:36:44;;;;;;;1999.90;999.90;;;;;;;15.23;70.81;102581.41;15680782;28;20124;-59
2021/10/07 19:44:17;;;;;;;1999.90;999.90;;;;;;;15.12;70.69;102573.53;15663181;28;20041;-59
2021/10/07 19:51:51;;;;;;;1999.90;999.90;;;;;;;15.28;70.55;102571.97;15663111;28;20049;-61
2021/10/07 19:59:23;;;;;;;1999.90;999.90;;;;;;;15.34;70.33;102570.72;15661437;28;20124;-59
2021/10/07 20:06:57;;;;;;;1999.90;999.90;;;;;;;15.34;70.54;102578.31;15679267;28;20087;-62
2021/10/07 20:14:29;;;;;;;1999.90;999.90;;;;;;;15.20;70.75;102565.13;15664975;28;20037;-57
2021/10/07 20:22:04;;;;;;;1999.90;999.90;;;;;;;15.14;70.69;102569.25;15670108;28;20048;-59
2021/10/07 20:29:36;;;;;;;1999.90;999.90;;;;;;;15.06;70.86;102570.00;15669024;28;20043;-60
2021/10/07 20:37:10;;;;;;;1999.90;999.90;;;;;;;15.00;71.12;102568.47;15638348;28;20049;-62
2021/10/07 20:44:45;;;;;;;1999.90;999.90;;;;;;;14.97;70.62;102580.34;15672979;28;20048;-59
2021/10/07 20:52:19;;;;;;;1999.90;999.90;;;;;;;14.79;72.03;102582.16;15671767;28;20041;-62
2021/10/07 20:59:51;;;;;;;1999.90;999.90;;;;;;;14.82;71.84;102590.00;15662977;28;20131;-57
2021/10/07 21:07:25;;;;;;;1999.90;999.90;;;;;;;14.79;71.75;102592.59;15664452;28;20091;-59
2021/10/07 21:14:57;;;;;;;1999.90;999.90;;;;;;;14.80;71.88;102586.66;15670264;28;20041;-57
2021/10/07 21:22:31;;;;;;;1999.90;999.90;;;;;;;14.77;73.12;102583.63;15713980;22;20060;-77
2021/10/07 21:30:04;;;;;;;1999.90;999.90;;;;;;;14.85;73.06;102586.53;15734693;28;20064;-80
2021/10/07 21:37:40;;;;;;;1999.90;999.90;;;;;;;15.01;71.71;102592.63;15744690;28;20047;-80
2021/10/07 21:45:13;;;;;;;1999.90;999.90;;;;;;;14.91;72.47;102595.69;15763424;28;20071;-81
2021/10/07 21:52:47;;;;;;;1999.90;999.90;;;;;;;14.97;72.45;102595.22;15721934;28;20115;-78
2021/10/07 22:00:21;;;;;;;1999.90;999.90;;;;;;;15.10;71.43;102598.31;15762030;28;20098;-78
2021/10/07 22:07:55;;;;;;;1999.90;999.90;;;;;;;15.18;71.96;102601.19;15728894;28;20041;-78
2021/10/07 22:15:27;;;;;;;1999.90;999.90;;;;;;;15.16;72.17;102605.47;15742970;28;20482;-78
2021/10/07 22:23:01;;;;;;;1999.90;999.90;;;;;;;15.36;72.06;102602.16;15710700;28;20040;-77
2021/10/07 22:30:35;;;;;;;1999.90;999.90;;;;;;;15.45;71.91;102602.22;15743818;28;20091;-77
2021/10/07 22:38:08;;;;;;;1999.90;999.90;;;;;;;15.46;72.37;102615.97;15709546;28;20385;-77
2021/10/07 22:45:42;;;;;;;1999.90;999.90;;;;;;;15.46;72.38;102613.16;15744091;28;20072;-75
2021/10/07 22:53:16;;;;;;;;;;;;;;;15.66;71.65;102611.00;15743471;28;20037;-75
2021/10/07 23:00:48;;;;;;;1999.90;999.90;;;;;;;15.47;72.79;102617.63;15742915;28;20407;-77
2021/10/07 23:08:22;;;;;;;1999.90;999.90;;;;;;;15.58;72.62;102613.41;15710753;28;20048;-77
2021/10/07 23:15:54;;;;;;;1999.90;999.90;;;;;;;15.56;73.17;102614.88;15737021;28;20189;-77
2021/10/07 23:23:28;;;;;;;1999.90;999.90;;;;;;;15.59;73.38;102608.59;15707551;28;20502;-77
2021/10/07 23:31:02;;;;;;;1999.90;999.90;;;;;;;15.58;73.21;102616.22;15689701;28;20045;-77
2021/10/07 23:38:36;;;;;;;1999.90;999.90;;;;;;;15.58;73.67;102612.56;15687986;28;20078;-77
2021/10/07 23:46:09;;;;;;;1999.90;999.90;;;;;;;15.56;73.65;102618.53;15708254;28;20114;-77
2021/10/07 23:53:42;;;;;;;1999.90;999.90;;;;;;;15.31;74.40;102617.16;15729946;28;20080;-77
